createdAt,value
2023-02-24T00:00:32.699Z,65.08
2023-02-24T00:03:37.644Z,65.05
2023-02-24T00:06:44.028Z,64.81
2023-02-24T00:09:46.795Z,64.90
2023-02-24T00:12:49.753Z,64.39
2023-02-24T00:16:03.007Z,64.09
2023-02-24T00:19:07.618Z,63.51
2023-02-24T00:22:10.467Z,64.30
2023-02-24T00:25:14.850Z,65.34
2023-02-24T00:28:16.878Z,64.30
2023-02-24T00:31:24.928Z,62.89
2023-02-24T00:34:31.739Z,64.52
2023-02-24T00:37:34.727Z,63.78
2023-02-24T00:40:37.773Z,63.77
2023-02-24T00:43:47.077Z,64.14
2023-02-24T00:46:49.126Z,64.37
2023-02-24T00:49:51.349Z,64.85
2023-02-24T00:52:54.107Z,64.37
2023-02-24T00:56:00.734Z,64.32
2023-02-24T00:59:03.660Z,64.08
2023-02-24T01:02:07.335Z,63.33
2023-02-24T01:05:09.973Z,64.03
2023-02-24T01:08:12.760Z,63.24
2023-02-24T01:11:37.559Z,62.50
2023-02-24T01:14:41.415Z,62.40
2023-02-24T01:17:43.670Z,62.94
2023-02-24T01:20:46.374Z,62.59
2023-02-24T01:23:50.117Z,61.86
2023-02-24T01:26:53.135Z,62.49
2023-02-24T01:29:55.214Z,61.71
2023-02-24T01:32:57.721Z,62.09
2023-02-24T01:36:28.605Z,62.49
2023-02-24T01:39:30.794Z,61.29
2023-02-24T01:42:34.234Z,61.46
2023-02-24T01:45:40.233Z,62.22
2023-02-24T01:48:42.883Z,61.28
2023-02-24T01:51:50.247Z,61.46
2023-02-24T01:55:09.409Z,60.58
2023-02-24T01:58:13.904Z,60.71
2023-02-24T02:01:20.442Z,61.00
2023-02-24T02:04:36.690Z,61.10
2023-02-24T02:07:40.662Z,60.98
2023-02-24T02:10:44.395Z,60.95
2023-02-24T02:13:52.454Z,61.15
2023-02-24T02:17:00.308Z,60.70
2023-02-24T02:20:16.031Z,60.53
2023-02-24T02:23:28.797Z,61.11
2023-02-24T02:27:12.311Z,60.78
2023-02-24T02:30:38.697Z,61.23
2023-02-24T02:34:02.854Z,61.41
2023-02-24T02:37:12.185Z,61.71
2023-02-24T02:40:24.210Z,61.27
2023-02-24T02:43:49.705Z,61.65
2023-02-24T02:47:09.136Z,61.67
2023-02-24T02:50:24.300Z,61.86
2023-02-24T02:53:39.765Z,61.11
2023-02-24T02:57:02.203Z,62.21
2023-02-24T03:00:23.394Z,62.09
2023-02-24T03:03:28.119Z,62.25
2023-02-24T03:06:53.770Z,61.96
2023-02-24T03:10:01.492Z,62.35
2023-02-24T03:13:06.638Z,62.50
2023-02-24T03:16:12.728Z,62.24
2023-02-24T03:19:20.786Z,63.08
2023-02-24T03:22:35.145Z,63.24
2023-02-24T03:25:47.038Z,63.55
2023-02-24T03:29:10.299Z,64.36
2023-02-24T03:32:12.669Z,65.22
2023-02-24T03:35:19.872Z,65.24
2023-02-24T03:38:24.623Z,65.16
2023-02-24T03:41:35.832Z,66.28
2023-02-24T03:44:38.262Z,67.21
2023-02-24T03:47:41.380Z,70.34
2023-02-24T03:50:44.052Z,71.53
2023-02-24T03:54:21.402Z,73.82
2023-02-24T03:57:55.034Z,87.97
2023-02-24T04:01:15.008Z,96.98
2023-02-24T04:04:35.589Z,99.88
2023-02-24T04:08:04.613Z,99.96
2023-02-24T04:11:17.915Z,97.92
2023-02-24T04:14:49.689Z,95.85
2023-02-24T04:18:02.190Z,94.91
2023-02-24T04:21:09.335Z,94.33
2023-02-24T04:24:15.894Z,93.84
2023-02-24T04:27:21.803Z,93.06
2023-02-24T04:30:29.876Z,91.54
2023-02-24T04:33:33.769Z,90.13
2023-02-24T04:36:38.080Z,89.16
2023-02-24T04:39:41.049Z,87.95
2023-02-24T04:42:50.532Z,87.16
2023-02-24T04:45:56.131Z,86.02
2023-02-24T04:48:58.079Z,85.76
2023-02-24T04:52:00.134Z,84.67
2023-02-24T04:55:10.092Z,83.94
2023-02-24T04:58:14.540Z,82.75
2023-02-24T05:01:16.641Z,81.68
2023-02-24T05:04:18.719Z,81.90
2023-02-24T05:07:22.694Z,81.17
2023-02-24T05:10:28.186Z,80.78
2023-02-24T05:13:31.964Z,80.98
2023-02-24T05:16:34.659Z,81.27
2023-02-24T05:20:11.830Z,81.30
2023-02-24T05:23:14.066Z,85.31
2023-02-24T05:26:18.365Z,87.94
2023-02-24T05:29:20.472Z,94.14
2023-02-24T05:32:24.485Z,95.10
2023-02-24T05:35:26.558Z,95.43
2023-02-24T05:38:28.580Z,97.06
2023-02-24T05:41:36.116Z,97.93
2023-02-24T05:44:38.224Z,97.92
2023-02-24T05:47:40.350Z,98.87
2023-02-24T05:50:46.320Z,97.90
2023-02-24T05:53:48.689Z,97.31
2023-02-24T05:56:50.696Z,96.17
2023-02-24T05:59:53.352Z,96.18
2023-02-24T06:03:07.707Z,95.57
2023-02-24T06:06:09.717Z,94.74
2023-02-24T06:09:13.996Z,94.05
2023-02-24T06:12:17.177Z,93.30
2023-02-24T06:15:19.172Z,89.92
2023-02-24T06:18:24.123Z,86.63
2023-02-24T06:21:29.311Z,84.00
2023-02-24T06:24:33.595Z,81.91
2023-02-24T06:27:39.234Z,80.81
2023-02-24T06:30:41.347Z,81.32
2023-02-24T06:33:43.434Z,80.59
2023-02-24T06:36:47.083Z,80.46
2023-02-24T06:39:49.066Z,79.50
2023-02-24T06:42:56.566Z,79.72
2023-02-24T06:46:02.502Z,79.44
2023-02-24T06:49:04.559Z,79.02
2023-02-24T06:52:06.694Z,79.53
2023-02-24T06:55:25.514Z,79.64
2023-02-24T06:58:27.596Z,78.89
2023-02-24T07:01:29.618Z,78.63
2023-02-24T07:04:36.332Z,78.39
2023-02-24T07:07:38.365Z,78.49
2023-02-24T07:10:40.507Z,78.10
2023-02-24T07:13:43.021Z,78.01
2023-02-24T07:16:45.901Z,77.75
2023-02-24T07:19:48.010Z,77.36
2023-02-24T07:22:50.302Z,77.38
2023-02-24T07:25:53.530Z,77.16
2023-02-24T07:28:56.800Z,76.95
2023-02-24T07:32:03.598Z,76.81
2023-02-24T07:35:06.149Z,76.64
2023-02-24T07:38:08.333Z,75.58
2023-02-24T07:41:12.405Z,76.13
2023-02-24T07:44:14.392Z,75.97
2023-02-24T07:47:16.430Z,75.02
2023-02-24T07:50:19.547Z,74.58
2023-02-24T07:53:21.616Z,73.78
2023-02-24T07:56:31.146Z,73.63
2023-02-24T07:59:35.926Z,73.96
2023-02-24T08:02:38.955Z,73.75
2023-02-24T08:05:43.760Z,73.58
2023-02-24T08:08:57.955Z,73.10
2023-02-24T08:12:01.546Z,73.31
2023-02-24T08:15:17.272Z,72.83
2023-02-24T08:18:20.239Z,72.73
2023-02-24T08:21:22.637Z,72.80
2023-02-24T08:24:30.045Z,72.06
2023-02-24T08:27:34.275Z,70.72
2023-02-24T08:30:46.612Z,71.75
2023-02-24T08:33:48.731Z,72.01
2023-02-24T08:36:56.159Z,71.35
2023-02-24T08:39:58.404Z,70.95
2023-02-24T08:43:17.222Z,70.59
2023-02-24T08:46:26.997Z,70.47
2023-02-24T08:49:29.439Z,70.93
2023-02-24T08:52:32.416Z,70.97
2023-02-24T08:55:39.956Z,69.94
2023-02-24T08:58:47.487Z,70.82
2023-02-24T09:02:04.372Z,70.02
2023-02-24T09:05:14.202Z,69.56
2023-02-24T09:08:16.588Z,69.92
2023-02-24T09:11:23.181Z,69.00
2023-02-24T09:14:28.496Z,69.97
2023-02-24T09:17:41.162Z,69.10
2023-02-24T09:21:16.271Z,68.68
2023-02-24T09:24:27.847Z,68.46
2023-02-24T09:27:31.612Z,68.34
2023-02-24T09:30:51.249Z,68.03
2023-02-24T09:33:53.624Z,67.88
2023-02-24T09:37:03.363Z,69.32
2023-02-24T09:40:21.404Z,72.29
2023-02-24T09:43:28.108Z,80.15
2023-02-24T09:46:56.866Z,76.54
2023-02-24T09:50:06.225Z,77.59
2023-02-24T09:53:17.610Z,74.77
2023-02-24T09:56:26.012Z,75.13
2023-02-24T10:00:01.610Z,74.35
2023-02-24T10:03:20.166Z,73.95
2023-02-24T10:06:26.932Z,73.61
2023-02-24T10:09:35.561Z,74.66
2023-02-24T10:12:40.406Z,74.46
2023-02-24T10:15:58.062Z,74.93
2023-02-24T10:19:17.314Z,73.64
2023-02-24T10:22:29.710Z,73.43
2023-02-24T10:25:57.143Z,74.86
2023-02-24T10:29:29.664Z,74.59
2023-02-24T10:32:37.503Z,75.38
2023-02-24T10:35:39.457Z,73.92
2023-02-24T10:38:45.591Z,74.77
2023-02-24T10:41:57.758Z,73.84
2023-02-24T10:45:18.530Z,74.00
2023-02-24T10:48:40.680Z,73.58
2023-02-24T10:51:51.525Z,73.41
2023-02-24T10:55:08.841Z,74.17
2023-02-24T10:58:43.367Z,74.35
2023-02-24T11:01:55.921Z,74.44
2023-02-24T11:05:03.665Z,74.65
2023-02-24T11:08:15.880Z,73.55
2023-02-24T11:11:31.030Z,73.37
2023-02-24T11:15:08.940Z,73.53
2023-02-24T11:18:18.481Z,73.32
2023-02-24T11:21:24.824Z,73.48
2023-02-24T11:24:29.749Z,73.21
2023-02-24T11:27:32.883Z,74.36
2023-02-24T11:30:46.540Z,74.72
2023-02-24T11:34:21.692Z,73.47
2023-02-24T11:37:45.125Z,73.98
2023-02-24T11:40:55.959Z,75.00
2023-02-24T11:44:31.284Z,78.36
2023-02-24T11:47:41.389Z,77.64
2023-02-24T11:51:06.630Z,76.58
2023-02-24T11:54:15.260Z,76.36
2023-02-24T11:57:23.945Z,76.62
2023-02-24T12:00:34.155Z,76.57
2023-02-24T12:04:01.504Z,76.00
2023-02-24T12:07:31.006Z,75.76
2023-02-24T12:10:41.564Z,76.01
2023-02-24T12:13:53.961Z,77.43
2023-02-24T12:17:18.328Z,79.55
2023-02-24T12:20:32.878Z,82.81
2023-02-24T12:23:36.173Z,83.46
2023-02-24T12:27:12.487Z,80.00
2023-02-24T12:30:51.295Z,78.42
2023-02-24T12:34:08.983Z,77.45
2023-02-24T12:37:28.564Z,75.99
2023-02-24T12:40:50.366Z,74.26
2023-02-24T12:43:57.782Z,74.17
2023-02-24T12:47:16.403Z,73.89
2023-02-24T12:50:30.987Z,72.47
2023-02-24T12:54:01.682Z,73.17
2023-02-24T12:57:22.432Z,72.36
2023-02-24T13:00:43.344Z,72.67
2023-02-24T13:04:22.084Z,71.49
2023-02-24T13:07:50.670Z,71.42
2023-02-24T13:10:59.210Z,70.20
2023-02-24T13:14:20.457Z,70.24
2023-02-24T13:17:27.351Z,70.02
2023-02-24T13:20:32.149Z,69.32
2023-02-24T13:23:38.821Z,69.01
2023-02-24T13:26:40.829Z,68.82
2023-02-24T13:29:47.701Z,68.92
2023-02-24T13:33:04.472Z,67.55
2023-02-24T13:36:09.937Z,67.59
2023-02-24T13:39:36.536Z,67.72
2023-02-24T13:42:39.072Z,68.29
2023-02-24T13:45:42.848Z,67.24
2023-02-24T13:49:00.335Z,67.98
2023-02-24T13:52:18.531Z,67.25
2023-02-24T13:55:39.902Z,67.79
2023-02-24T13:59:01.746Z,68.23
2023-02-24T14:02:22.736Z,68.00
2023-02-24T14:05:35.554Z,67.80
2023-02-24T14:08:42.702Z,67.77
2023-02-24T14:11:44.930Z,67.37
2023-02-24T14:14:48.565Z,67.41
2023-02-24T14:18:00.144Z,67.95
2023-02-24T14:21:02.557Z,68.06
2023-02-24T14:24:11.686Z,67.55
2023-02-24T14:27:25.121Z,68.28
2023-02-24T14:30:37.341Z,67.60
2023-02-24T14:33:42.092Z,67.63
2023-02-24T14:36:49.882Z,67.97
2023-02-24T14:40:20.496Z,68.57
2023-02-24T14:43:24.249Z,68.90
2023-02-24T14:46:26.783Z,68.65
2023-02-24T14:49:34.226Z,69.33
2023-02-24T14:52:42.424Z,68.35
2023-02-24T14:55:50.160Z,68.31
2023-02-24T14:59:01.412Z,68.14
2023-02-24T15:02:12.442Z,67.86
2023-02-24T15:05:15.438Z,67.83
2023-02-24T15:08:29.755Z,68.61
2023-02-24T15:11:33.106Z,68.81
2023-02-24T15:14:35.228Z,68.90
2023-02-24T15:17:41.686Z,70.85
2023-02-24T15:20:43.797Z,72.22
2023-02-24T15:23:52.395Z,75.05
2023-02-24T15:27:00.830Z,75.59
2023-02-24T15:30:25.674Z,73.28
2023-02-24T15:33:34.368Z,72.55
2023-02-24T15:36:36.851Z,72.00
2023-02-24T15:39:43.653Z,73.21
2023-02-24T15:42:57.882Z,72.55
2023-02-24T15:46:00.130Z,72.52
2023-02-24T15:49:04.776Z,72.68
2023-02-24T15:52:11.237Z,73.19
2023-02-24T15:55:18.323Z,72.63
2023-02-24T15:58:30.517Z,72.41
2023-02-24T16:01:33.449Z,72.31
2023-02-24T16:04:35.529Z,72.62
2023-02-24T16:07:39.313Z,73.05
2023-02-24T16:10:42.568Z,72.07
2023-02-24T16:13:52.626Z,71.79
2023-02-24T16:20:31.804Z,72.06
2023-02-24T16:23:56.843Z,72.55
2023-02-24T16:26:58.942Z,71.78
2023-02-24T16:30:02.561Z,70.77
2023-02-24T16:33:05.951Z,70.15
2023-02-24T16:36:12.139Z,70.02
2023-02-24T16:39:15.858Z,71.24
2023-02-24T16:42:20.186Z,71.76
2023-02-24T16:45:28.591Z,71.75
2023-02-24T16:48:36.946Z,71.75
2023-02-24T16:51:40.648Z,70.86
2023-02-24T16:54:42.994Z,71.54
2023-02-24T16:57:50.162Z,71.52
2023-02-24T17:00:54.796Z,71.51
2023-02-24T17:03:56.975Z,70.71
2023-02-24T17:06:59.181Z,69.89
2023-02-24T17:10:01.200Z,70.38
2023-02-24T17:13:03.594Z,70.07
2023-02-24T17:16:06.066Z,69.59
2023-02-24T17:19:09.214Z,69.51
2023-02-24T17:22:11.335Z,69.50
2023-02-24T17:25:21.914Z,69.99
2023-02-24T17:28:24.493Z,69.49
2023-02-24T17:31:31.712Z,69.55
2023-02-24T17:34:33.924Z,69.27
2023-02-24T17:37:36.306Z,70.58
2023-02-24T17:40:38.413Z,71.05
2023-02-24T17:43:40.478Z,69.57
2023-02-24T17:46:42.824Z,71.20
2023-02-24T17:49:44.945Z,70.95
2023-02-24T17:52:47.137Z,71.03
2023-02-24T17:56:01.856Z,71.15
2023-02-24T17:59:07.653Z,71.47
2023-02-24T18:02:11.759Z,71.24
2023-02-24T18:05:16.514Z,70.65
2023-02-24T18:08:18.543Z,70.72
2023-02-24T18:11:21.273Z,70.74
2023-02-24T18:14:23.655Z,70.76
2023-02-24T18:17:26.083Z,69.85
2023-02-24T18:20:28.244Z,70.20
2023-02-24T18:23:30.401Z,69.78
2023-02-24T18:26:32.416Z,70.59
2023-02-24T18:29:34.556Z,70.61
2023-02-24T18:32:36.822Z,70.28
2023-02-24T18:35:39.230Z,70.16
2023-02-24T18:38:41.550Z,69.55
2023-02-24T18:41:47.618Z,69.93
2023-02-24T18:44:49.705Z,69.83
2023-02-24T18:47:52.723Z,69.67
2023-02-24T18:50:56.582Z,68.90
2023-02-24T18:53:59.496Z,69.78
2023-02-24T18:57:02.716Z,69.68
2023-02-24T19:00:08.762Z,70.11
2023-02-24T19:03:18.141Z,69.26
2023-02-24T19:06:22.186Z,69.15
2023-02-24T19:09:24.499Z,69.32
2023-02-24T19:12:26.917Z,68.52
2023-02-24T19:15:30.126Z,69.23
2023-02-24T19:18:32.510Z,68.73
2023-02-24T19:21:34.653Z,68.33
2023-02-24T19:24:36.843Z,68.31
2023-02-24T19:27:39.725Z,68.42
2023-02-24T19:30:41.885Z,68.15
2023-02-24T19:33:44.584Z,68.29
2023-02-24T19:36:46.675Z,68.35
2023-02-24T19:39:48.813Z,68.96
2023-02-24T19:42:53.316Z,69.05
2023-02-24T19:45:55.544Z,68.60
2023-02-24T19:48:57.635Z,68.41
2023-02-24T19:52:00.096Z,68.43
2023-02-24T19:55:02.486Z,67.43
2023-02-24T19:58:05.124Z,67.80
2023-02-24T20:01:16.676Z,67.51
2023-02-24T20:04:19.101Z,68.28
2023-02-24T20:07:22.772Z,67.66
2023-02-24T20:10:24.794Z,67.88
2023-02-24T20:13:26.920Z,67.21
2023-02-24T20:16:32.688Z,67.17
2023-02-24T20:19:35.203Z,67.86
2023-02-24T20:22:37.294Z,68.00
2023-02-24T20:25:39.558Z,67.45
2023-02-24T20:28:41.836Z,68.22
2023-02-24T20:31:46.371Z,68.17
2023-02-24T20:34:48.561Z,67.57
2023-02-24T20:37:50.641Z,67.43
2023-02-24T20:41:00.648Z,67.46
2023-02-24T20:44:02.698Z,67.54
2023-02-24T20:47:06.190Z,67.73
2023-02-24T20:50:08.550Z,67.39
2023-02-24T20:53:10.672Z,67.16
2023-02-24T20:56:20.516Z,67.01
2023-02-24T20:59:23.148Z,66.97
2023-02-24T21:02:26.190Z,66.94
2023-02-24T21:05:28.204Z,67.13
2023-02-24T21:08:31.147Z,67.24
2023-02-24T21:11:34.608Z,67.03
2023-02-24T21:14:36.840Z,67.76
2023-02-24T21:17:39.820Z,67.22
2023-02-24T21:20:41.828Z,67.27
2023-02-24T21:23:44.265Z,66.97
2023-02-24T21:26:47.548Z,66.75
2023-02-24T21:29:49.522Z,66.82
2023-02-24T21:32:51.642Z,67.21
2023-02-24T21:36:03.393Z,66.57
2023-02-24T21:39:08.662Z,66.92
2023-02-24T21:42:12.296Z,66.29
2023-02-24T21:45:19.366Z,66.24
2023-02-24T21:48:22.192Z,65.89
2023-02-24T21:51:25.381Z,66.39
2023-02-24T21:54:30.104Z,66.46
2023-02-24T21:57:32.209Z,66.56
2023-02-24T22:00:34.294Z,67.23
2023-02-24T22:03:36.360Z,67.26
2023-02-24T22:06:39.810Z,66.91
2023-02-24T22:09:41.963Z,66.80
2023-02-24T22:12:44.656Z,66.53
2023-02-24T22:15:46.644Z,66.50
2023-02-24T22:18:49.826Z,66.50
2023-02-24T22:21:51.794Z,66.24
2023-02-24T22:24:55.038Z,65.93
2023-02-24T22:27:57.330Z,65.78
2023-02-24T22:30:59.826Z,65.45
2023-02-24T22:34:04.523Z,65.51
2023-02-24T22:37:07.295Z,65.55
2023-02-24T22:40:10.422Z,65.54
2023-02-24T22:43:12.507Z,65.85
2023-02-24T22:46:21.877Z,66.51
2023-02-24T22:49:24.123Z,66.74
2023-02-24T22:52:26.898Z,66.74
2023-02-24T22:55:29.537Z,66.72
2023-02-24T22:58:32.697Z,66.71
2023-02-24T23:01:37.195Z,66.99
2023-02-24T23:04:39.205Z,67.18
2023-02-24T23:07:41.362Z,67.17
2023-02-24T23:10:43.552Z,67.30
2023-02-24T23:13:47.969Z,67.23
2023-02-24T23:16:55.648Z,67.42
2023-02-24T23:19:58.841Z,67.54
2023-02-24T23:23:01.956Z,67.13
2023-02-24T23:26:05.215Z,67.59
2023-02-24T23:29:08.649Z,67.36
2023-02-24T23:32:11.839Z,68.04
2023-02-24T23:35:15.386Z,68.34
2023-02-24T23:38:17.837Z,67.79
2023-02-24T23:41:19.852Z,67.86
2023-02-24T23:44:22.318Z,67.71
2023-02-24T23:47:24.535Z,67.74
2023-02-24T23:50:27.000Z,67.60
2023-02-24T23:53:28.955Z,67.81
2023-02-24T23:56:31.878Z,67.28
2023-02-24T23:59:33.870Z,67.34
